sensor_id;sensor_type;location;lat;lon;timestamp;temperature;humidity
71117;SHT31;58775;46.992;9.518;2023-05-27T06:27:35;19.89;69.76
71117;SHT31;58775;46.992;9.518;2023-05-27T06:30:06;20.87;66.35
71117;SHT31;58775;46.992;9.518;2023-05-27T06:36:25;20.71;67.58
71117;SHT31;58775;46.992;9.518;2023-05-27T06:38:29;21.16;66.44
71117;SHT31;58775;46.992;9.518;2023-05-27T06:40:34;21.43;65.77
71117;SHT31;58775;46.992;9.518;2023-05-27T06:42:37;21.33;66.21
71117;SHT31;58775;46.992;9.518;2023-05-27T06:44:59;21.71;63.10
71117;SHT31;58775;46.992;9.518;2023-05-27T06:47:04;22.59;62.80
71117;SHT31;58775;46.992;9.518;2023-05-27T06:49:08;22.77;61.11
71117;SHT31;58775;46.992;9.518;2023-05-27T06:51:10;23.04;60.11
71117;SHT31;58775;46.992;9.518;2023-05-27T06:53:13;22.79;62.50
71117;SHT31;58775;46.992;9.518;2023-05-27T06:55:28;23.27;60.37
71117;SHT31;58775;46.992;9.518;2023-05-27T06:57:48;23.30;59.42
71117;SHT31;58775;46.992;9.518;2023-05-27T06:59:56;23.31;59.87
71117;SHT31;58775;46.992;9.518;2023-05-27T07:01:59;23.86;58.21
71117;SHT31;58775;46.992;9.518;2023-05-27T07:04:01;23.82;58.95
71117;SHT31;58775;46.992;9.518;2023-05-27T07:06:14;24.21;58.17
71117;SHT31;58775;46.992;9.518;2023-05-27T07:08:22;24.48;56.05
71117;SHT31;58775;46.992;9.518;2023-05-27T07:10:36;24.51;56.15
71117;SHT31;58775;46.992;9.518;2023-05-27T07:12:38;24.73;57.07
71117;SHT31;58775;46.992;9.518;2023-05-27T07:14:55;24.56;56.95
71117;SHT31;58775;46.992;9.518;2023-05-27T07:17:00;24.57;55.89
71117;SHT31;58775;46.992;9.518;2023-05-27T07:19:03;24.30;56.75
71117;SHT31;58775;46.992;9.518;2023-05-27T07:21:09;24.90;56.32
71117;SHT31;58775;46.992;9.518;2023-05-27T07:23:12;25.04;56.04
71117;SHT31;58775;46.992;9.518;2023-05-27T07:25:17;25.30;55.13
71117;SHT31;58775;46.992;9.518;2023-05-27T07:27:20;25.18;55.60
71117;SHT31;58775;46.992;9.518;2023-05-27T07:29:30;24.05;58.60
71117;SHT31;58775;46.992;9.518;2023-05-27T07:31:46;24.74;55.31
71117;SHT31;58775;46.992;9.518;2023-05-27T07:33:50;25.08;54.61
71117;SHT31;58775;46.992;9.518;2023-05-27T07:35:54;25.04;56.75
71117;SHT31;58775;46.992;9.518;2023-05-27T08:37:16;27.26;51.87
71117;SHT31;58775;46.992;9.518;2023-05-27T08:42:11;27.07;51.26
71117;SHT31;58775;46.992;9.518;2023-05-27T08:44:31;27.71;51.47
71117;SHT31;58775;46.992;9.518;2023-05-27T08:47:04;27.60;50.92
71117;SHT31;58775;46.992;9.518;2023-05-27T08:49:19;27.65;50.62
71117;SHT31;58775;46.992;9.518;2023-05-27T08:51:23;27.08;52.18
71117;SHT31;58775;46.992;9.518;2023-05-27T08:53:26;27.52;50.45
71117;SHT31;58775;46.992;9.518;2023-05-27T08:55:31;27.82;50.93
71117;SHT31;58775;46.992;9.518;2023-05-27T08:57:35;27.58;51.86
71117;SHT31;58775;46.992;9.518;2023-05-27T08:59:41;26.73;52.21
71117;SHT31;58775;46.992;9.518;2023-05-27T09:01:46;27.73;51.82
71117;SHT31;58775;46.992;9.518;2023-05-27T09:03:48;27.87;51.73
71117;SHT31;58775;46.992;9.518;2023-05-27T09:05:50;28.30;49.46
71117;SHT31;58775;46.992;9.518;2023-05-27T09:07:53;28.34;50.96
71117;SHT31;58775;46.992;9.518;2023-05-27T09:09:58;28.17;51.24
71117;SHT31;58775;46.992;9.518;2023-05-27T09:12:01;28.78;50.56
71117;SHT31;58775;46.992;9.518;2023-05-27T09:14:05;28.28;49.60
71117;SHT31;58775;46.992;9.518;2023-05-27T09:16:07;28.47;50.67
71117;SHT31;58775;46.992;9.518;2023-05-27T09:18:09;28.01;51.18
71117;SHT31;58775;46.992;9.518;2023-05-27T09:20:14;27.36;50.79
71117;SHT31;58775;46.992;9.518;2023-05-27T09:22:30;27.83;50.36
71117;SHT31;58775;46.992;9.518;2023-05-27T09:24:32;28.28;51.00
71117;SHT31;58775;46.992;9.518;2023-05-27T09:26:35;29.06;48.04
71117;SHT31;58775;46.992;9.518;2023-05-27T09:28:38;28.85;49.30
71117;SHT31;58775;46.992;9.518;2023-05-27T09:30:44;29.78;47.00
71117;SHT31;58775;46.992;9.518;2023-05-27T09:32:46;26.97;50.55
71117;SHT31;58775;46.992;9.518;2023-05-27T09:34:49;28.06;50.49
71117;SHT31;58775;46.992;9.518;2023-05-27T09:36:51;28.64;48.69
71117;SHT31;58775;46.992;9.518;2023-05-27T09:38:53;27.87;49.35
71117;SHT31;58775;46.992;9.518;2023-05-27T09:40:57;28.50;49.32
71117;SHT31;58775;46.992;9.518;2023-05-27T09:42:59;29.49;47.65
71117;SHT31;58775;46.992;9.518;2023-05-27T09:45:03;29.39;47.38
71117;SHT31;58775;46.992;9.518;2023-05-27T09:47:11;28.82;47.77
71117;SHT31;58775;46.992;9.518;2023-05-27T09:49:14;29.32;48.18
71117;SHT31;58775;46.992;9.518;2023-05-27T09:51:22;28.13;49.40
71117;SHT31;58775;46.992;9.518;2023-05-27T09:53:26;29.12;47.54
71117;SHT31;58775;46.992;9.518;2023-05-27T09:55:34;28.85;48.29
71117;SHT31;58775;46.992;9.518;2023-05-27T09:57:57;28.59;48.07
71117;SHT31;58775;46.992;9.518;2023-05-27T10:00:51;29.13;48.23
71117;SHT31;58775;46.992;9.518;2023-05-27T10:03:22;29.91;46.22
71117;SHT31;58775;46.992;9.518;2023-05-27T10:05:30;28.71;50.71
71117;SHT31;58775;46.992;9.518;2023-05-27T10:07:32;29.97;46.74
71117;SHT31;58775;46.992;9.518;2023-05-27T10:09:34;30.29;45.57
71117;SHT31;58775;46.992;9.518;2023-05-27T10:11:37;28.91;45.87
71117;SHT31;58775;46.992;9.518;2023-05-27T10:13:41;29.30;48.18
71117;SHT31;58775;46.992;9.518;2023-05-27T10:15:47;29.51;46.08
71117;SHT31;58775;46.992;9.518;2023-05-27T10:17:55;27.92;47.32
71117;SHT31;58775;46.992;9.518;2023-05-27T10:19:57;29.20;46.70
71117;SHT31;58775;46.992;9.518;2023-05-27T10:22:07;28.61;46.63
71117;SHT31;58775;46.992;9.518;2023-05-27T10:24:11;28.47;49.30
71117;SHT31;58775;46.992;9.518;2023-05-27T10:26:13;28.16;47.96
71117;SHT31;58775;46.992;9.518;2023-05-27T10:28:32;28.51;48.06
71117;SHT31;58775;46.992;9.518;2023-05-27T10:30:44;28.30;50.27
71117;SHT31;58775;46.992;9.518;2023-05-27T10:32:50;27.24;51.02
71117;SHT31;58775;46.992;9.518;2023-05-27T10:34:52;27.21;49.17
71117;SHT31;58775;46.992;9.518;2023-05-27T10:37:00;28.64;47.98
71117;SHT31;58775;46.992;9.518;2023-05-27T10:41:07;27.94;50.09
71117;SHT31;58775;46.992;9.518;2023-05-27T10:43:16;29.03;49.20
71117;SHT31;58775;46.992;9.518;2023-05-27T10:45:19;28.82;47.39
71117;SHT31;58775;46.992;9.518;2023-05-27T10:47:35;29.43;47.76
71117;SHT31;58775;46.992;9.518;2023-05-27T10:49:39;30.29;44.34
71117;SHT31;58775;46.992;9.518;2023-05-27T10:51:42;28.30;50.42
71117;SHT31;58775;46.992;9.518;2023-05-27T10:53:46;28.98;46.28
71117;SHT31;58775;46.992;9.518;2023-05-27T10:55:49;29.16;46.33
71117;SHT31;58775;46.992;9.518;2023-05-27T10:57:54;30.18;45.13
71117;SHT31;58775;46.992;9.518;2023-05-27T11:00:03;29.73;46.59
71117;SHT31;58775;46.992;9.518;2023-05-27T11:02:06;29.63;48.51
71117;SHT31;58775;46.992;9.518;2023-05-27T11:04:08;30.58;44.67
71117;SHT31;58775;46.992;9.518;2023-05-27T11:06:11;29.98;46.03
71117;SHT31;58775;46.992;9.518;2023-05-27T11:08:17;28.55;45.67
71117;SHT31;58775;46.992;9.518;2023-05-27T11:16:28;30.05;44.29
71117;SHT31;58775;46.992;9.518;2023-05-27T11:18:37;29.74;44.76
71117;SHT31;58775;46.992;9.518;2023-05-27T11:20:41;29.19;44.52
71117;SHT31;58775;46.992;9.518;2023-05-27T11:22:50;29.90;44.83
71117;SHT31;58775;46.992;9.518;2023-05-27T11:25:03;29.03;45.50
71117;SHT31;58775;46.992;9.518;2023-05-27T11:27:14;29.15;46.88
71117;SHT31;58775;46.992;9.518;2023-05-27T11:29:17;29.88;45.96
71117;SHT31;58775;46.992;9.518;2023-05-27T11:31:21;28.11;50.74
71117;SHT31;58775;46.992;9.518;2023-05-27T11:33:35;26.99;48.98
71117;SHT31;58775;46.992;9.518;2023-05-27T11:35:37;27.56;49.92
71117;SHT31;58775;46.992;9.518;2023-05-27T11:37:39;27.73;49.06
71117;SHT31;58775;46.992;9.518;2023-05-27T11:39:52;29.13;47.62
71117;SHT31;58775;46.992;9.518;2023-05-27T11:41:54;29.77;44.89
71117;SHT31;58775;46.992;9.518;2023-05-27T11:44:05;29.34;45.46
71117;SHT31;58775;46.992;9.518;2023-05-27T11:46:07;29.42;46.12
71117;SHT31;58775;46.992;9.518;2023-05-27T11:48:10;28.69;47.43
71117;SHT31;58775;46.992;9.518;2023-05-27T11:50:14;28.51;47.61
71117;SHT31;58775;46.992;9.518;2023-05-27T11:52:17;29.50;48.41
71117;SHT31;58775;46.992;9.518;2023-05-27T11:54:22;29.23;47.26
71117;SHT31;58775;46.992;9.518;2023-05-27T11:56:24;29.50;45.51
71117;SHT31;58775;46.992;9.518;2023-05-27T11:58:27;29.73;45.66
71117;SHT31;58775;46.992;9.518;2023-05-27T12:00:30;28.55;51.04
71117;SHT31;58775;46.992;9.518;2023-05-27T12:02:32;28.34;50.62
71117;SHT31;58775;46.992;9.518;2023-05-27T12:04:33;27.96;49.87
71117;SHT31;58775;46.992;9.518;2023-05-27T12:06:37;28.57;48.63
71117;SHT31;58775;46.992;9.518;2023-05-27T12:08:42;29.42;47.61
71117;SHT31;58775;46.992;9.518;2023-05-27T12:10:44;29.39;47.59
71117;SHT31;58775;46.992;9.518;2023-05-27T12:12:51;29.49;49.10
71117;SHT31;58775;46.992;9.518;2023-05-27T12:14:53;28.91;48.16
71117;SHT31;58775;46.992;9.518;2023-05-27T12:16:56;29.66;45.67
71117;SHT31;58775;46.992;9.518;2023-05-27T12:18:59;29.23;47.64
71117;SHT31;58775;46.992;9.518;2023-05-27T12:21:02;28.58;48.68
71117;SHT31;58775;46.992;9.518;2023-05-27T12:23:04;27.69;50.05
71117;SHT31;58775;46.992;9.518;2023-05-27T12:25:06;28.95;48.34
71117;SHT31;58775;46.992;9.518;2023-05-27T12:27:08;28.99;48.29
71117;SHT31;58775;46.992;9.518;2023-05-27T12:29:10;27.69;48.39
71117;SHT31;58775;46.992;9.518;2023-05-27T12:31:13;28.11;50.45
71117;SHT31;58775;46.992;9.518;2023-05-27T12:33:15;28.33;48.13
71117;SHT31;58775;46.992;9.518;2023-05-27T12:35:18;28.28;47.15
71117;SHT31;58775;46.992;9.518;2023-05-27T12:37:20;27.25;49.67
71117;SHT31;58775;46.992;9.518;2023-05-27T12:39:22;28.24;47.41
71117;SHT31;58775;46.992;9.518;2023-05-27T12:41:26;28.67;46.58
71117;SHT31;58775;46.992;9.518;2023-05-27T12:43:28;27.85;46.96
71117;SHT31;58775;46.992;9.518;2023-05-27T12:45:31;27.41;48.21
71117;SHT31;58775;46.992;9.518;2023-05-27T12:47:33;28.10;46.73
71117;SHT31;58775;46.992;9.518;2023-05-27T12:49:36;28.54;47.77
71117;SHT31;58775;46.992;9.518;2023-05-27T12:51:38;28.01;47.14
71117;SHT31;58775;46.992;9.518;2023-05-27T12:53:41;27.24;47.10
71117;SHT31;58775;46.992;9.518;2023-05-27T12:55:43;27.04;49.23
71117;SHT31;58775;46.992;9.518;2023-05-27T12:57:49;27.62;47.94
71117;SHT31;58775;46.992;9.518;2023-05-27T12:59:51;27.35;48.56
71117;SHT31;58775;46.992;9.518;2023-05-27T13:01:52;27.83;49.01
71117;SHT31;58775;46.992;9.518;2023-05-27T13:03:55;28.51;47.51
71117;SHT31;58775;46.992;9.518;2023-05-27T13:05:58;28.69;46.27
71117;SHT31;58775;46.992;9.518;2023-05-27T13:08:02;28.67;46.86
71117;SHT31;58775;46.992;9.518;2023-05-27T13:10:06;28.41;46.55
71117;SHT31;58775;46.992;9.518;2023-05-27T13:12:08;27.53;50.96
71117;SHT31;58775;46.992;9.518;2023-05-27T13:14:11;27.62;50.38
71117;SHT31;58775;46.992;9.518;2023-05-27T13:16:13;27.66;47.54
71117;SHT31;58775;46.992;9.518;2023-05-27T13:18:17;27.32;48.88
71117;SHT31;58775;46.992;9.518;2023-05-27T13:20:20;27.42;48.57
71117;SHT31;58775;46.992;9.518;2023-05-27T13:22:24;27.59;46.78
71117;SHT31;58775;46.992;9.518;2023-05-27T13:24:27;27.63;47.84
71117;SHT31;58775;46.992;9.518;2023-05-27T13:26:31;27.79;49.49
71117;SHT31;58775;46.992;9.518;2023-05-27T13:28:34;28.31;48.75
71117;SHT31;58775;46.992;9.518;2023-05-27T13:30:38;27.92;48.17
71117;SHT31;58775;46.992;9.518;2023-05-27T13:32:41;27.82;50.58
71117;SHT31;58775;46.992;9.518;2023-05-27T13:34:46;27.02;48.65
71117;SHT31;58775;46.992;9.518;2023-05-27T13:36:48;27.18;49.69
71117;SHT31;58775;46.992;9.518;2023-05-27T13:38:51;27.09;51.50
71117;SHT31;58775;46.992;9.518;2023-05-27T13:40:53;27.36;50.09
71117;SHT31;58775;46.992;9.518;2023-05-27T13:42:55;27.59;47.98
71117;SHT31;58775;46.992;9.518;2023-05-27T13:44:58;27.09;50.06
71117;SHT31;58775;46.992;9.518;2023-05-27T13:47:00;27.08;49.36
71117;SHT31;58775;46.992;9.518;2023-05-27T13:49:03;27.53;49.49
71117;SHT31;58775;46.992;9.518;2023-05-27T13:51:05;27.43;49.11
71117;SHT31;58775;46.992;9.518;2023-05-27T13:53:08;27.60;48.53
71117;SHT31;58775;46.992;9.518;2023-05-27T13:55:11;26.83;48.12
71117;SHT31;58775;46.992;9.518;2023-05-27T13:57:13;27.39;49.11
71117;SHT31;58775;46.992;9.518;2023-05-27T13:59:16;27.52;51.67
71117;SHT31;58775;46.992;9.518;2023-05-27T14:01:18;27.70;46.85
71117;SHT31;58775;46.992;9.518;2023-05-27T14:03:21;27.24;49.07
71117;SHT31;58775;46.992;9.518;2023-05-27T14:05:24;27.12;48.97
71117;SHT31;58775;46.992;9.518;2023-05-27T14:07:28;26.84;48.64
71117;SHT31;58775;46.992;9.518;2023-05-27T14:09:30;26.64;48.87
71117;SHT31;58775;46.992;9.518;2023-05-27T14:11:33;26.63;50.80
71117;SHT31;58775;46.992;9.518;2023-05-27T14:13:36;26.64;50.25
71117;SHT31;58775;46.992;9.518;2023-05-27T14:15:38;26.80;49.85
71117;SHT31;58775;46.992;9.518;2023-05-27T14:17:41;26.90;49.33
71117;SHT31;58775;46.992;9.518;2023-05-27T14:19:43;27.01;48.73
71117;SHT31;58775;46.992;9.518;2023-05-27T14:21:46;26.70;49.04
71117;SHT31;58775;46.992;9.518;2023-05-27T14:23:49;26.13;49.92
71117;SHT31;58775;46.992;9.518;2023-05-27T14:25:52;26.50;50.39
71117;SHT31;58775;46.992;9.518;2023-05-27T14:27:53;26.32;50.79
71117;SHT31;58775;46.992;9.518;2023-05-27T14:29:58;26.33;49.05
71117;SHT31;58775;46.992;9.518;2023-05-27T14:32:00;26.06;48.92
71117;SHT31;58775;46.992;9.518;2023-05-27T14:34:03;25.85;49.63
71117;SHT31;58775;46.992;9.518;2023-05-27T14:36:07;25.79;49.13
71117;SHT31;58775;46.992;9.518;2023-05-27T14:38:10;25.81;51.45
71117;SHT31;58775;46.992;9.518;2023-05-27T14:40:14;25.93;49.44
71117;SHT31;58775;46.992;9.518;2023-05-27T14:42:16;25.71;49.25
71117;SHT31;58775;46.992;9.518;2023-05-27T14:44:18;25.72;51.15
71117;SHT31;58775;46.992;9.518;2023-05-27T14:46:23;25.69;50.17
71117;SHT31;58775;46.992;9.518;2023-05-27T14:48:28;26.15;53.10
71117;SHT31;58775;46.992;9.518;2023-05-27T14:50:30;25.90;56.85
71117;SHT31;58775;46.992;9.518;2023-05-27T14:52:32;26.06;51.23
71117;SHT31;58775;46.992;9.518;2023-05-27T14:54:34;25.86;54.07
71117;SHT31;58775;46.992;9.518;2023-05-27T14:56:36;25.62;50.30
71117;SHT31;58775;46.992;9.518;2023-05-27T14:58:40;25.33;51.50
71117;SHT31;58775;46.992;9.518;2023-05-27T15:00:44;25.64;51.41
71117;SHT31;58775;46.992;9.518;2023-05-27T15:02:48;25.27;55.18
71117;SHT31;58775;46.992;9.518;2023-05-27T15:04:51;25.31;52.25
71117;SHT31;58775;46.992;9.518;2023-05-27T15:06:53;25.08;51.86
71117;SHT31;58775;46.992;9.518;2023-05-27T15:08:56;24.66;58.33
71117;SHT31;58775;46.992;9.518;2023-05-27T15:10:58;24.36;59.27
71117;SHT31;58775;46.992;9.518;2023-05-27T15:13:01;24.42;58.43
71117;SHT31;58775;46.992;9.518;2023-05-27T15:15:09;24.30;58.59
71117;SHT31;58775;46.992;9.518;2023-05-27T15:17:13;24.21;60.37
71117;SHT31;58775;46.992;9.518;2023-05-27T15:19:16;24.62;59.05
71117;SHT31;58775;46.992;9.518;2023-05-27T15:21:20;24.48;57.31
71117;SHT31;58775;46.992;9.518;2023-05-27T15:23:23;24.60;57.63
71117;SHT31;58775;46.992;9.518;2023-05-27T15:25:25;24.77;62.92
71117;SHT31;58775;46.992;9.518;2023-05-27T15:27:27;24.83;57.33
71117;SHT31;58775;46.992;9.518;2023-05-27T15:29:30;25.04;56.64
71117;SHT31;58775;46.992;9.518;2023-05-27T15:31:31;25.03;56.77
71117;SHT31;58775;46.992;9.518;2023-05-27T15:33:35;25.20;53.86
71117;SHT31;58775;46.992;9.518;2023-05-27T15:35:38;24.98;51.66
71117;SHT31;58775;46.992;9.518;2023-05-27T15:37:41;24.90;54.17
71117;SHT31;58775;46.992;9.518;2023-05-27T15:39:42;24.39;52.34
71117;SHT31;58775;46.992;9.518;2023-05-27T15:41:45;24.66;51.22
71117;SHT31;58775;46.992;9.518;2023-05-27T15:43:47;24.35;51.33
71117;SHT31;58775;46.992;9.518;2023-05-27T15:45:50;24.36;54.24
71117;SHT31;58775;46.992;9.518;2023-05-27T15:47:52;24.26;52.74
71117;SHT31;58775;46.992;9.518;2023-05-27T15:49:55;24.06;51.95
71117;SHT31;58775;46.992;9.518;2023-05-27T15:51:58;24.36;54.67
71117;SHT31;58775;46.992;9.518;2023-05-27T15:54:00;24.21;51.27
71117;SHT31;58775;46.992;9.518;2023-05-27T15:56:05;23.97;55.60
71117;SHT31;58775;46.992;9.518;2023-05-27T15:58:09;23.72;54.25
71117;SHT31;58775;46.992;9.518;2023-05-27T16:00:12;23.44;53.42
71117;SHT31;58775;46.992;9.518;2023-05-27T16:02:15;23.60;53.42
71117;SHT31;58775;46.992;9.518;2023-05-27T16:04:18;23.28;54.50
71117;SHT31;58775;46.992;9.518;2023-05-27T16:06:20;23.19;54.02
71117;SHT31;58775;46.992;9.518;2023-05-27T16:08:22;23.13;54.38
71117;SHT31;58775;46.992;9.518;2023-05-27T16:10:23;23.20;56.85
71117;SHT31;58775;46.992;9.518;2023-05-27T16:12:25;23.19;55.34
71117;SHT31;58775;46.992;9.518;2023-05-27T16:14:27;23.17;53.65
71117;SHT31;58775;46.992;9.518;2023-05-27T16:16:30;23.13;55.67
71117;SHT31;58775;46.992;9.518;2023-05-27T16:18:34;23.00;54.68
71117;SHT31;58775;46.992;9.518;2023-05-27T16:20:36;23.21;54.61
71117;SHT31;58775;46.992;9.518;2023-05-27T16:22:40;23.17;54.61
71117;SHT31;58775;46.992;9.518;2023-05-27T16:24:41;23.27;53.70
71117;SHT31;58775;46.992;9.518;2023-05-27T16:26:43;23.21;54.12
71117;SHT31;58775;46.992;9.518;2023-05-27T16:28:46;23.20;55.04
71117;SHT31;58775;46.992;9.518;2023-05-27T16:30:49;23.09;54.41
71117;SHT31;58775;46.992;9.518;2023-05-27T16:32:50;23.10;54.80
71117;SHT31;58775;46.992;9.518;2023-05-27T16:38:33;23.17;54.31
71117;SHT31;58775;46.992;9.518;2023-05-27T16:40:36;23.31;52.70
71117;SHT31;58775;46.992;9.518;2023-05-27T16:42:39;23.37;55.16
71117;SHT31;58775;46.992;9.518;2023-05-27T16:44:41;23.19;57.60
71117;SHT31;58775;46.992;9.518;2023-05-27T16:46:43;23.16;54.31
71117;SHT31;58775;46.992;9.518;2023-05-27T16:48:46;23.30;54.07
71117;SHT31;58775;46.992;9.518;2023-05-27T16:50:49;23.13;56.95
71117;SHT31;58775;46.992;9.518;2023-05-27T16:52:52;23.21;55.08
71117;SHT31;58775;46.992;9.518;2023-05-27T16:54:54;23.21;54.94
71117;SHT31;58775;46.992;9.518;2023-05-27T16:56:57;23.26;55.68
71117;SHT31;58775;46.992;9.518;2023-05-27T16:58:59;23.28;55.24
71117;SHT31;58775;46.992;9.518;2023-05-27T17:01:02;23.24;53.56
71117;SHT31;58775;46.992;9.518;2023-05-27T17:03:05;23.27;54.88
71117;SHT31;58775;46.992;9.518;2023-05-27T17:05:09;23.09;57.05
71117;SHT31;58775;46.992;9.518;2023-05-27T17:07:12;23.14;55.01
71117;SHT31;58775;46.992;9.518;2023-05-27T17:09:17;23.10;54.09
71117;SHT31;58775;46.992;9.518;2023-05-27T17:11:21;23.19;54.51
71117;SHT31;58775;46.992;9.518;2023-05-27T17:13:24;23.10;53.67
71117;SHT31;58775;46.992;9.518;2023-05-27T17:15:27;23.16;54.30
71117;SHT31;58775;46.992;9.518;2023-05-27T17:17:30;22.90;54.27
71117;SHT31;58775;46.992;9.518;2023-05-27T17:19:32;22.86;56.52
71117;SHT31;58775;46.992;9.518;2023-05-27T17:21:37;22.76;55.49
71117;SHT31;58775;46.992;9.518;2023-05-27T17:23:45;22.79;54.47
71117;SHT31;58775;46.992;9.518;2023-05-27T17:25:47;22.55;56.76
71117;SHT31;58775;46.992;9.518;2023-05-27T17:27:49;22.44;57.05
71117;SHT31;58775;46.992;9.518;2023-05-27T17:29:55;22.52;57.58
71117;SHT31;58775;46.992;9.518;2023-05-27T17:31:57;22.44;56.31
71117;SHT31;58775;46.992;9.518;2023-05-27T17:34:03;22.51;56.93
71117;SHT31;58775;46.992;9.518;2023-05-27T17:36:06;22.37;56.49
71117;SHT31;58775;46.992;9.518;2023-05-27T17:38:08;22.44;54.82
71117;SHT31;58775;46.992;9.518;2023-05-27T17:40:11;22.48;55.61
71117;SHT31;58775;46.992;9.518;2023-05-27T17:42:15;22.44;55.78
71117;SHT31;58775;46.992;9.518;2023-05-27T17:44:17;22.41;54.63
71117;SHT31;58775;46.992;9.518;2023-05-27T17:46:19;22.29;55.46
71117;SHT31;58775;46.992;9.518;2023-05-27T17:48:22;22.19;56.28
71117;SHT31;58775;46.992;9.518;2023-05-27T17:50:25;22.19;55.91
71117;SHT31;58775;46.992;9.518;2023-05-27T17:52:28;22.35;56.61
71117;SHT31;58775;46.992;9.518;2023-05-27T17:54:32;22.15;57.29
71117;SHT31;58775;46.992;9.518;2023-05-27T17:56:34;22.15;55.35
71117;SHT31;58775;46.992;9.518;2023-05-27T17:58:36;22.18;55.73
71117;SHT31;58775;46.992;9.518;2023-05-27T18:00:39;22.00;57.18
71117;SHT31;58775;46.992;9.518;2023-05-27T18:02:41;21.93;58.24
71117;SHT31;58775;46.992;9.518;2023-05-27T18:04:43;21.77;58.26
71117;SHT31;58775;46.992;9.518;2023-05-27T18:06:45;21.83;56.44
71117;SHT31;58775;46.992;9.518;2023-05-27T18:08:48;21.84;56.13
71117;SHT31;58775;46.992;9.518;2023-05-27T18:10:51;21.86;57.13
71117;SHT31;58775;46.992;9.518;2023-05-27T18:12:54;21.86;57.18
71117;SHT31;58775;46.992;9.518;2023-05-27T18:14:56;21.86;57.31
71117;SHT31;58775;46.992;9.518;2023-05-27T18:17:03;21.86;56.12
71117;SHT31;58775;46.992;9.518;2023-05-27T18:19:09;21.84;56.99
71117;SHT31;58775;46.992;9.518;2023-05-27T18:21:14;21.86;56.30
71117;SHT31;58775;46.992;9.518;2023-05-27T18:23:18;21.84;56.30
71117;SHT31;58775;46.992;9.518;2023-05-27T18:25:21;21.78;57.47
71117;SHT31;58775;46.992;9.518;2023-05-27T18:27:33;21.78;56.43
71117;SHT31;58775;46.992;9.518;2023-05-27T18:29:36;21.78;58.26
71117;SHT31;58775;46.992;9.518;2023-05-27T18:31:38;21.76;56.75
71117;SHT31;58775;46.992;9.518;2023-05-27T18:33:42;21.54;58.28
71117;SHT31;58775;46.992;9.518;2023-05-27T18:35:46;21.49;57.50
71117;SHT31;58775;46.992;9.518;2023-05-27T18:37:49;21.54;58.83
71117;SHT31;58775;46.992;9.518;2023-05-27T18:39:54;21.33;59.46
71117;SHT31;58775;46.992;9.518;2023-05-27T18:42:19;21.30;60.26
71117;SHT31;58775;46.992;9.518;2023-05-27T18:44:37;21.32;57.73
71117;SHT31;58775;46.992;9.518;2023-05-27T18:46:44;21.29;58.56
71117;SHT31;58775;46.992;9.518;2023-05-27T18:48:49;21.39;56.97
71117;SHT31;58775;46.992;9.518;2023-05-27T18:50:55;21.35;57.81
71117;SHT31;58775;46.992;9.518;2023-05-27T18:52:58;21.45;56.80
71117;SHT31;58775;46.992;9.518;2023-05-27T18:55:02;21.37;56.83
71117;SHT31;58775;46.992;9.518;2023-05-27T18:57:06;21.45;57.18
71117;SHT31;58775;46.992;9.518;2023-05-27T18:59:09;21.45;56.77
71117;SHT31;58775;46.992;9.518;2023-05-27T19:01:11;21.49;56.44
71117;SHT31;58775;46.992;9.518;2023-05-27T19:03:15;21.42;59.04
71117;SHT31;58775;46.992;9.518;2023-05-27T19:10:59;21.37;57.11
71117;SHT31;58775;46.992;9.518;2023-05-27T19:13:06;21.43;56.64
71117;SHT31;58775;46.992;9.518;2023-05-27T19:15:09;21.32;58.44
71117;SHT31;58775;46.992;9.518;2023-05-27T19:17:12;21.29;58.54
71117;SHT31;58775;46.992;9.518;2023-05-27T19:19:15;21.29;56.97
71117;SHT31;58775;46.992;9.518;2023-05-27T19:21:18;21.42;56.62
71117;SHT31;58775;46.992;9.518;2023-05-27T19:23:20;21.47;56.74
71117;SHT31;58775;46.992;9.518;2023-05-27T19:25:22;21.45;56.89
71117;SHT31;58775;46.992;9.518;2023-05-27T19:27:25;21.42;56.80
71117;SHT31;58775;46.992;9.518;2023-05-27T19:29:28;21.30;56.97
71117;SHT31;58775;46.992;9.518;2023-05-27T19:31:31;21.20;60.31
71117;SHT31;58775;46.992;9.518;2023-05-27T19:33:32;21.10;59.95
71117;SHT31;58775;46.992;9.518;2023-05-27T19:35:37;21.09;58.51
71117;SHT31;58775;46.992;9.518;2023-05-27T19:37:39;20.87;59.62
71117;SHT31;58775;46.992;9.518;2023-05-27T19:39:43;20.92;58.29
71117;SHT31;58775;46.992;9.518;2023-05-27T19:41:45;20.85;60.11
71117;SHT31;58775;46.992;9.518;2023-05-27T19:43:49;20.87;60.40
71117;SHT31;58775;46.992;9.518;2023-05-27T19:45:51;20.82;59.95
71117;SHT31;58775;46.992;9.518;2023-05-27T19:47:57;20.85;59.44
71117;SHT31;58775;46.992;9.518;2023-05-27T19:50:00;20.69;61.59
71117;SHT31;58775;46.992;9.518;2023-05-27T19:52:04;20.92;58.31
71117;SHT31;58775;46.992;9.518;2023-05-27T19:54:11;20.84;58.57
71117;SHT31;58775;46.992;9.518;2023-05-27T19:56:14;20.78;60.41
71117;SHT31;58775;46.992;9.518;2023-05-27T19:58:27;20.51;63.63
71117;SHT31;58775;46.992;9.518;2023-05-27T20:00:34;20.28;65.46
71117;SHT31;58775;46.992;9.518;2023-05-27T20:02:51;20.23;65.01
71117;SHT31;58775;46.992;9.518;2023-05-27T20:05:19;20.24;62.58
71117;SHT31;58775;46.992;9.518;2023-05-27T20:07:25;20.06;61.79
71117;SHT31;58775;46.992;9.518;2023-05-27T20:09:39;20.20;60.82
71117;SHT31;58775;46.992;9.518;2023-05-27T20:11:49;20.20;62.37
71117;SHT31;58775;46.992;9.518;2023-05-27T20:13:58;20.24;60.43
71117;SHT31;58775;46.992;9.518;2023-05-27T20:16:04;20.26;63.55
71117;SHT31;58775;46.992;9.518;2023-05-27T20:18:09;20.01;65.91
71117;SHT31;58775;46.992;9.518;2023-05-27T20:20:12;20.17;60.29
71117;SHT31;58775;46.992;9.518;2023-05-27T20:22:18;20.23;60.03
71117;SHT31;58775;46.992;9.518;2023-05-27T20:24:22;19.87;65.66
71117;SHT31;58775;46.992;9.518;2023-05-27T20:31:24;20.30;59.00
71117;SHT31;58775;46.992;9.518;2023-05-27T20:33:27;20.20;61.22
71117;SHT31;58775;46.992;9.518;2023-05-27T20:35:31;20.07;62.89
71117;SHT31;58775;46.992;9.518;2023-05-27T20:37:46;20.17;61.27
71117;SHT31;58775;46.992;9.518;2023-05-27T20:39:49;20.28;59.00
71117;SHT31;58775;46.992;9.518;2023-05-27T20:41:56;20.03;63.87
71117;SHT31;58775;46.992;9.518;2023-05-27T20:44:00;19.85;65.41
71117;SHT31;58775;46.992;9.518;2023-05-27T20:46:05;19.87;66.12
71117;SHT31;58775;46.992;9.518;2023-05-27T20:48:09;19.56;67.32
71117;SHT31;58775;46.992;9.518;2023-05-27T20:50:16;19.42;67.11
71117;SHT31;58775;46.992;9.518;2023-05-27T20:52:29;19.32;67.74
71117;SHT31;58775;46.992;9.518;2023-05-27T20:54:33;19.11;68.86
71117;SHT31;58775;46.992;9.518;2023-05-27T20:56:36;18.97;70.26
71117;SHT31;58775;46.992;9.518;2023-05-27T20:58:39;18.73;70.36
71117;SHT31;58775;46.992;9.518;2023-05-27T21:00:42;18.65;70.77
71117;SHT31;58775;46.992;9.518;2023-05-27T21:02:47;18.49;71.05